Informes METAR cercanos


LEVC - Manises, Valencia, ESPAÑA
Distance from station: NNE 72km
Actualización: 24/01/2021 21:30
Despejado
Despejado
 Viento del O
Viento: O 19 km/h
Temperatura: 14°C
Rocío: 7°C
Humedad: 63%
Barómetro: 1014 hPa
Resumen: Despejado
Visibility: Mas de 10 km
2021/01/24 20:30 LEVC 242030Z 27010KT CAVOK 14/07 Q1014 NOSIG
LEAL - El Altet, Alicante, ESPAÑA
Distance from station: S 70km
Actualización: 24/01/2021 21:30
Despejado
Despejado
 Viento del O
Viento: O 24 km/h
Temperatura: 17°C
Rocío: 4°C
Humedad: 42%
Barómetro: 1014 hPa
Resumen: Despejado
Visibility: Mas de 10 km
2021/01/24 20:30 LEAL 242030Z 28013KT 240V310 CAVOK 17/04 Q1014 NOSIG
 
LELC - San Javier, Murcia, ESPAÑA
Distance from station: SSO 188km
Actualización: 24/01/2021 21:30
Despejado
Despejado
 Viento del NO
Viento: NO 11 km/h
Temperatura: 14°C
Rocío: 9°C
Humedad: 72%
Barómetro: 1014 hPa
Resumen: Despejado
Visibility: Mas de 10 km
2021/01/24 20:30 LELC 242030Z 32006KT CAVOK 14/09 Q1014 NOSIG
LEAB - Los Llanos, Albacete, ESPAÑA
Distance from station: O 143km
Actualización: 24/01/2021 21:30
Despejado
Despejado
 Viento del O
Viento: O 15 km/h
Temperatura: 7°C
Sensacion frio: 4°C
Rocío: 4°C
Humedad: 81%
Barómetro: 1016 hPa
Resumen: Despejado
Visibility: Mas de 10 km
2021/01/24 20:30 LEAB 242030Z 27008KT CAVOK 07/04 Q1016 NOSIG